Time;durP1;ratioP1;P1;durP2;ratioP2;P2;SDS_P1;SDS_P2;PMS_P1;PMS_P2;Temp;Humidity;BMP_temperature;BMP_pressure;BME280_temperature;BME280_humidity;BME280_pressure;Samples;Min_cycle;Max_cycle;Signal;HPM_P1;HPM_P2
2021/10/06 00:01:02;;;;;;;3.63;2.63;;;;;;;8.78;89.12;95895.53;5092779;28;20047;-67
2021/10/06 00:03:29;;;;;;;8.27;3.40;;;;;;;8.64;89.90;95896.47;5069321;28;20075;-67
2021/10/06 00:05:56;;;;;;;8.35;3.38;;;;;;;8.58;89.97;95890.25;5088060;28;20048;-67
2021/10/06 00:08:22;;;;;;;7.13;2.78;;;;;;;8.55;90.64;95895.81;5087341;28;20421;-67
2021/10/06 00:10:49;;;;;;;5.70;3.30;;;;;;;8.44;91.36;95878.19;5097068;28;20098;-67
2021/10/06 00:13:16;;;;;;;5.43;3.78;;;;;;;8.40;91.40;95882.94;5099484;28;20097;-67
2021/10/06 00:15:44;;;;;;;4.70;3.35;;;;;;;8.29;93.04;95886.06;5094202;28;20484;-67
2021/10/06 00:18:15;;;;;;;6.10;3.50;;;;;;;8.31;92.86;95884.09;5107818;28;20401;-67
2021/10/06 00:20:42;;;;;;;4.72;2.85;;;;;;;8.33;92.30;95876.91;5107577;28;20074;-67
2021/10/06 00:23:09;;;;;;;4.47;3.22;;;;;;;8.28;92.90;95874.88;5107524;28;20051;-67
2021/10/06 00:25:36;;;;;;;6.57;3.28;;;;;;;8.35;92.57;95880.91;5086812;28;20048;-67
2021/10/06 00:28:03;;;;;;;12.95;4.60;;;;;;;8.30;92.99;95877.28;5087975;28;20032;-67
2021/10/06 00:30:30;;;;;;;5.47;2.90;;;;;;;8.27;93.40;95880.28;5107532;28;20051;-67
2021/10/06 00:32:57;;;;;;;5.28;3.03;;;;;;;8.22;93.03;95867.84;5087799;28;20469;-66
2021/10/06 00:35:25;;;;;;;9.15;3.80;;;;;;;8.10;93.73;95862.38;5087201;28;20515;-67
2021/10/06 00:37:51;;;;;;;7.47;3.90;;;;;;;8.12;93.73;95857.81;5103337;28;20044;-67
2021/10/06 00:40:18;;;;;;;6.97;3.05;;;;;;;8.06;93.80;95850.78;5107277;28;20042;-67
2021/10/06 00:42:45;;;;;;;6.45;3.58;;;;;;;8.13;93.16;95859.41;5099621;28;20097;-71
2021/10/06 00:45:12;;;;;;;4.97;3.13;;;;;;;8.23;92.68;95862.47;5094575;28;20086;-71
2021/10/06 00:47:38;;;;;;;4.90;3.53;;;;;;;8.28;92.34;95861.09;5087219;28;20136;-71
2021/10/06 00:50:06;;;;;;;5.95;3.65;;;;;;;8.34;91.95;95857.75;5085454;28;20052;-70
2021/10/06 00:52:33;;;;;;;5.05;2.80;;;;;;;8.31;92.42;95858.91;5088540;28;20408;-71
2021/10/06 00:54:59;;;;;;;5.50;3.03;;;;;;;8.23;92.83;95853.91;5104058;28;20065;-71
2021/10/06 00:57:26;;;;;;;5.80;2.92;;;;;;;8.30;92.38;95852.16;5100694;28;20047;-71
2021/10/06 00:59:53;;;;;;;4.53;3.35;;;;;;;8.18;93.24;95854.47;5100029;28;20035;-71
2021/10/06 01:02:20;;;;;;;4.22;2.95;;;;;;;8.02;94.05;95859.94;5106385;28;20534;-71
2021/10/06 01:04:47;;;;;;;5.97;3.17;;;;;;;8.05;94.34;95854.38;5102942;28;20046;-71
2021/10/06 01:07:14;;;;;;;5.45;3.13;;;;;;;8.03;94.59;95851.16;5105334;28;20084;-71
2021/10/06 01:09:41;;;;;;;5.70;3.60;;;;;;;8.02;94.29;95839.19;5076619;28;20055;-71
2021/10/06 01:12:08;;;;;;;7.03;3.25;;;;;;;7.92;95.00;95834.31;5099817;28;20032;-70
2021/10/06 01:14:35;;;;;;;5.22;2.72;;;;;;;8.10;94.22;95852.00;5104359;28;20043;-71
2021/10/06 01:17:02;;;;;;;6.30;3.67;;;;;;;8.17;93.64;95842.47;5106543;28;20046;-71
2021/10/06 01:19:30;;;;;;;5.20;3.33;;;;;;;8.08;94.02;95833.22;5106149;28;20036;-70
2021/10/06 01:21:58;;;;;;;9.60;3.83;;;;;;;8.05;94.97;95833.63;5104821;28;20044;-71
2021/10/06 01:24:26;;;;;;;6.38;3.65;;;;;;;7.96;95.55;95829.56;5092256;28;20040;-71
2021/10/06 01:26:53;;;;;;;4.43;2.88;;;;;;;7.84;96.10;95817.13;5088253;28;20088;-71
2021/10/06 01:29:19;;;;;;;5.43;2.90;;;;;;;7.89;96.70;95828.75;5100445;28;20040;-71
2021/10/06 01:31:47;;;;;;;6.22;4.25;;;;;;;7.92;97.23;95828.34;5095558;28;20044;-72
2021/10/06 01:34:17;;;;;;;6.68;3.60;;;;;;;8.04;96.22;95829.41;5085693;28;20652;-72
2021/10/06 01:36:48;;;;;;;5.93;4.32;;;;;;;7.97;96.90;95825.97;5085736;28;20105;-72
2021/10/06 01:39:16;;;;;;;6.63;3.63;;;;;;;7.99;97.08;95816.22;5087437;28;20466;-71
2021/10/06 01:41:44;;;;;;;6.95;4.25;;;;;;;7.88;96.68;95799.38;5094301;28;20601;-72
2021/10/06 01:44:15;;;;;;;7.00;4.25;;;;;;;7.98;97.06;95814.63;5090850;28;20043;-72
2021/10/06 01:46:42;;;;;;;8.38;4.25;;;;;;;7.92;97.21;95803.19;5090146;28;20439;-71
2021/10/06 01:49:09;;;;;;;6.50;3.72;;;;;;;7.93;97.16;95809.19;5089068;28;20078;-71
2021/10/06 01:51:36;;;;;;;5.60;3.80;;;;;;;8.02;96.39;95818.44;5084926;28;20039;-71
2021/10/06 01:54:04;;;;;;;7.82;4.57;;;;;;;8.01;95.75;95816.81;5099815;28;20484;-71
2021/10/06 01:56:32;;;;;;;5.97;3.15;;;;;;;7.94;95.37;95821.16;5101344;28;20040;-71
2021/10/06 01:59:00;;;;;;;6.82;4.38;;;;;;;7.90;95.59;95825.13;5097767;28;20040;-71
2021/10/06 02:01:27;;;;;;;6.97;4.15;;;;;;;7.89;95.01;95813.19;5087075;28;20051;-71
2021/10/06 02:03:54;;;;;;;4.85;3.42;;;;;;;7.72;95.29;95818.63;5098976;28;20035;-71
2021/10/06 02:06:21;;;;;;;20.10;4.30;;;;;;;7.47;95.99;95805.25;5092296;28;20426;-71
2021/10/06 02:08:48;;;;;;;6.80;3.85;;;;;;;7.44;96.81;95816.81;5102449;28;20047;-71
2021/10/06 02:11:15;;;;;;;8.40;4.10;;;;;;;7.17;97.94;95794.25;5099009;28;20040;-72
2021/10/06 02:13:41;;;;;;;6.15;4.00;;;;;;;7.10;98.89;95804.56;5084839;28;20040;-71
2021/10/06 02:16:08;;;;;;;11.48;3.70;;;;;;;7.14;99.47;95805.78;5085499;28;20044;-71
2021/10/06 02:18:35;;;;;;;8.13;4.10;;;;;;;7.06;99.71;95796.34;5092872;28;22022;-71
2021/10/06 02:21:03;;;;;;;12.05;4.30;;;;;;;7.23;99.50;95824.59;5084271;28;20048;-71
2021/10/06 02:23:29;;;;;;;5.55;3.45;;;;;;;7.24;100.00;95821.03;5085111;28;20516;-71
2021/10/06 02:25:56;;;;;;;6.40;4.10;;;;;;;7.15;100.00;95811.75;5084542;28;20108;-71
2021/10/06 02:28:23;;;;;;;6.32;4.07;;;;;;;7.17;100.00;95810.59;5093425;28;20036;-71
2021/10/06 02:30:50;;;;;;;8.80;4.75;;;;;;;7.22;100.00;95817.81;5089099;28;20044;-71
2021/10/06 02:33:17;;;;;;;7.80;4.47;;;;;;;7.29;100.00;95823.84;5096856;28;20047;-71
2021/10/06 02:35:44;;;;;;;7.75;4.00;;;;;;;7.40;100.00;95820.78;5084750;28;20070;-71
2021/10/06 02:38:10;;;;;;;7.72;4.88;;;;;;;7.44;100.00;95822.00;5101157;28;20040;-71
2021/10/06 02:40:37;;;;;;;7.72;4.10;;;;;;;7.58;100.00;95824.69;5105078;28;20051;-71
2021/10/06 02:43:04;;;;;;;7.63;4.43;;;;;;;7.67;100.00;95821.00;5098033;28;20032;-71
2021/10/06 02:45:31;;;;;;;6.28;4.03;;;;;;;7.74;100.00;95808.88;5096206;28;20058;-71
2021/10/06 02:47:58;;;;;;;7.00;3.38;;;;;;;7.85;99.96;95810.94;5102783;28;20044;-72
2021/10/06 02:50:26;;;;;;;6.82;4.22;;;;;;;7.83;100.00;95810.34;5097359;28;20048;-70
2021/10/06 02:52:53;;;;;;;7.00;4.38;;;;;;;7.87;100.00;95815.13;5094370;28;20036;-71
2021/10/06 02:55:21;;;;;;;8.40;4.45;;;;;;;7.98;99.61;95819.81;5088869;28;20100;-71
2021/10/06 02:57:48;;;;;;;6.45;3.88;;;;;;;7.98;99.66;95812.03;5100899;28;20496;-71
2021/10/06 03:00:15;;;;;;;8.48;4.82;;;;;;;8.05;99.93;95812.88;5082814;28;20048;-71
2021/10/06 03:02:42;;;;;;;6.55;3.38;;;;;;;8.04;100.00;95806.06;5087340;28;20040;-71
2021/10/06 03:05:11;;;;;;;7.50;4.55;;;;;;;8.10;100.00;95810.47;5084351;28;20520;-70
2021/10/06 03:07:38;;;;;;;10.95;5.10;;;;;;;8.14;100.00;95808.31;5086364;28;20496;-71
2021/10/06 03:10:07;;;;;;;9.00;5.05;;;;;;;8.15;99.94;95802.94;5101558;28;20047;-71
2021/10/06 03:12:34;;;;;;;9.40;4.97;;;;;;;8.15;99.97;95786.56;5097774;28;20050;-71
2021/10/06 03:15:01;;;;;;;10.30;5.20;;;;;;;8.24;99.20;95796.59;5078734;28;20401;-71
2021/10/06 03:17:28;;;;;;;10.50;5.22;;;;;;;8.31;98.78;95799.22;5100863;28;20492;-71
2021/10/06 03:19:55;;;;;;;9.43;5.22;;;;;;;8.34;98.49;95805.84;5100996;28;20048;-71
2021/10/06 03:22:22;;;;;;;10.98;5.68;;;;;;;8.27;98.74;95802.41;5094405;28;20048;-71
2021/10/06 03:24:49;;;;;;;7.32;4.45;;;;;;;8.33;98.21;95805.03;5086355;28;20097;-71
2021/10/06 03:27:16;;;;;;;11.10;5.53;;;;;;;8.36;98.10;95806.44;5102328;28;20531;-71
2021/10/06 03:29:44;;;;;;;11.88;5.53;;;;;;;8.52;97.87;95808.75;5098676;28;20032;-71
2021/10/06 03:32:12;;;;;;;8.32;5.35;;;;;;;8.46;97.24;95782.75;5106973;28;20047;-70
2021/10/06 03:34:39;;;;;;;10.98;5.93;;;;;;;8.49;97.43;95782.38;5087488;28;20036;-71
2021/10/06 03:37:06;;;;;;;14.43;5.03;;;;;;;8.50;97.70;95779.56;5095531;28;20048;-70
2021/10/06 03:39:32;;;;;;;10.60;6.18;;;;;;;8.54;97.56;95774.81;5096111;28;20050;-70
2021/10/06 03:41:59;;;;;;;11.02;6.95;;;;;;;8.45;97.64;95768.97;5098597;28;20587;-70
2021/10/06 03:44:26;;;;;;;11.32;6.47;;;;;;;8.64;97.84;95779.63;5092819;28;20113;-70
2021/10/06 03:46:53;;;;;;;11.68;6.78;;;;;;;8.65;97.51;95778.63;5075106;28;20074;-70
2021/10/06 03:49:20;;;;;;;11.93;6.82;;;;;;;8.70;97.29;95782.25;5092686;28;20050;-71
2021/10/06 03:51:47;;;;;;;15.88;8.23;;;;;;;8.73;97.67;95774.06;5092847;28;20036;-70
2021/10/06 03:54:14;;;;;;;12.40;7.25;;;;;;;8.84;97.13;95785.69;5101842;28;20501;-70
2021/10/06 03:56:41;;;;;;;16.55;7.70;;;;;;;8.86;96.46;95760.31;5096432;28;20126;-70
2021/10/06 03:59:07;;;;;;;12.95;7.25;;;;;;;9.09;95.83;95783.34;5092880;28;20504;-71
2021/10/06 04:01:34;;;;;;;10.52;6.65;;;;;;;9.18;95.44;95782.13;5092272;28;20048;-70
2021/10/06 04:04:01;;;;;;;10.82;6.68;;;;;;;9.13;95.57;95778.53;5095308;28;20032;-71
2021/10/06 04:06:28;;;;;;;14.00;8.20;;;;;;;9.11;95.85;95777.91;5083646;28;20064;-71
2021/10/06 04:08:55;;;;;;;12.50;8.20;;;;;;;9.05;96.18;95776.13;5087713;28;20063;-70
2021/10/06 04:11:21;;;;;;;13.35;7.18;;;;;;;9.05;95.92;95776.13;5101829;28;20031;-71
2021/10/06 04:13:48;;;;;;;16.13;8.25;;;;;;;8.97;96.14;95762.31;5100965;28;20028;-71
2021/10/06 04:16:16;;;;;;;13.43;6.97;;;;;;;9.01;95.74;95764.53;5093371;28;20048;-71
2021/10/06 04:18:43;;;;;;;14.38;7.32;;;;;;;8.94;96.04;95757.50;5096284;28;20040;-71
2021/10/06 04:21:10;;;;;;;11.35;6.40;;;;;;;9.08;96.00;95779.13;5089220;28;20040;-71
2021/10/06 04:23:36;;;;;;;11.50;6.82;;;;;;;9.15;95.35;95776.53;5093806;28;20105;-71
2021/10/06 04:26:03;;;;;;;11.35;6.95;;;;;;;9.11;94.76;95751.94;5096526;28;20031;-71
2021/10/06 04:28:30;;;;;;;12.73;7.35;;;;;;;9.23;95.03;95767.75;5091322;28;20048;-71
2021/10/06 04:30:57;;;;;;;12.00;6.35;;;;;;;9.17;95.10;95764.16;5095710;28;20040;-71
2021/10/06 04:33:24;;;;;;;10.85;7.53;;;;;;;9.26;94.70;95762.16;5094650;28;20044;-71
2021/10/06 04:35:50;;;;;;;16.60;8.18;;;;;;;9.21;95.01;95757.53;5095916;28;20048;-70
2021/10/06 04:38:17;;;;;;;14.05;7.13;;;;;;;9.24;94.78;95758.94;5092962;28;20036;-71
2021/10/06 04:40:44;;;;;;;13.88;8.45;;;;;;;9.22;94.96;95750.53;5099038;28;20059;-72
2021/10/06 04:43:12;;;;;;;13.48;7.28;;;;;;;9.28;94.49;95765.34;5079339;28;20059;-71
2021/10/06 04:46:03;;;;;;;13.60;7.30;;;;;;;9.31;93.89;95765.75;5082299;28;20059;-71
2021/10/06 04:48:30;;;;;;;15.60;9.18;;;;;;;9.34;93.95;95770.53;5088784;28;20048;-71
2021/10/06 04:50:57;;;;;;;19.45;8.20;;;;;;;9.33;93.87;95768.94;5097236;28;20462;-71
2021/10/06 04:53:24;;;;;;;17.00;8.60;;;;;;;9.43;94.06;95767.75;5089024;28;20058;-72
2021/10/06 04:55:50;;;;;;;15.35;8.88;;;;;;;9.50;93.58;95768.53;5092943;28;20048;-71
2021/10/06 04:58:17;;;;;;;13.25;7.50;;;;;;;9.43;93.33;95757.34;5092939;28;20039;-72
2021/10/06 05:00:44;;;;;;;12.90;7.05;;;;;;;9.53;92.84;95752.56;5095022;28;20043;-72
2021/10/06 05:03:13;;;;;;;13.23;6.97;;;;;;;9.50;92.83;95758.13;5097979;28;20047;-70
2021/10/06 05:05:41;;;;;;;13.00;8.35;;;;;;;9.48;93.14;95765.34;5089735;28;20043;-70
2021/10/06 05:08:08;;;;;;;21.95;11.88;;;;;;;9.33;92.88;95753.34;5092487;28;20040;-70
2021/10/06 05:10:35;;;;;;;19.42;8.75;;;;;;;9.48;92.94;95760.16;5089044;28;20202;-71
2021/10/06 05:13:06;;;;;;;25.67;15.45;;;;;;;9.52;93.10;95766.53;5076846;28;20078;-70
2021/10/06 05:15:33;;;;;;;21.95;13.23;;;;;;;9.43;92.62;95757.34;5085291;28;20448;-70
2021/10/06 05:18:00;;;;;;;18.88;9.32;;;;;;;9.65;92.51;95770.94;5088712;28;20039;-70
2021/10/06 05:20:27;;;;;;;14.27;7.70;;;;;;;9.67;92.26;95774.94;5094115;28;20040;-70
2021/10/06 05:22:53;;;;;;;15.95;9.65;;;;;;;9.70;91.98;95769.31;5092067;28;20040;-70
2021/10/06 05:25:21;;;;;;;15.02;10.50;;;;;;;9.74;92.18;95765.34;5088143;28;20094;-70
2021/10/06 05:27:49;;;;;;;17.80;9.40;;;;;;;9.71;92.06;95754.53;5088964;28;20047;-71
2021/10/06 05:30:16;;;;;;;15.60;8.18;;;;;;;9.83;91.32;95759.91;5085016;28;20055;-70
2021/10/06 05:32:43;;;;;;;41.25;10.25;;;;;;;9.85;90.81;95760.50;5092851;28;20035;-71
2021/10/06 05:35:10;;;;;;;14.02;8.38;;;;;;;9.83;90.98;95762.50;5085935;28;20485;-69
2021/10/06 05:37:37;;;;;;;16.35;9.20;;;;;;;9.89;91.49;95756.50;5085632;28;20051;-70
2021/10/06 05:40:05;;;;;;;12.95;8.07;;;;;;;9.88;90.69;95739.28;5085182;28;20036;-71
2021/10/06 05:42:31;;;;;;;13.38;7.63;;;;;;;9.97;90.75;95748.47;5092403;28;20044;-71
2021/10/06 05:44:58;;;;;;;13.55;8.25;;;;;;;10.11;90.15;95755.22;5067764;28;20040;-70
2021/10/06 05:47:25;;;;;;;14.73;8.43;;;;;;;10.03;90.06;95747.66;5093132;28;20043;-71
2021/10/06 05:49:54;;;;;;;11.88;7.05;;;;;;;10.07;89.66;95759.25;5097592;28;20508;-71
2021/10/06 05:52:22;;;;;;;12.88;7.63;;;;;;;10.11;90.18;95760.44;5097694;28;20051;-70
2021/10/06 05:54:49;;;;;;;15.73;9.30;;;;;;;10.20;89.80;95752.41;5085738;28;20424;-71
2021/10/06 05:57:16;;;;;;;10.52;7.07;;;;;;;10.19;89.78;95745.59;5084157;28;20036;-70
2021/10/06 05:59:43;;;;;;;14.20;8.02;;;;;;;10.26;89.07;95752.41;5089941;28;20039;-70
2021/10/06 06:02:10;;;;;;;11.73;7.57;;;;;;;10.22;88.38;95732.19;5088466;28;20474;-72
2021/10/06 06:04:37;;;;;;;13.90;7.35;;;;;;;10.23;88.83;95736.38;5090824;28;20043;-71
2021/10/06 06:07:05;;;;;;;16.70;9.80;;;;;;;10.34;88.63;95748.78;5092069;28;20035;-72
2021/10/06 06:09:31;;;;;;;14.43;8.18;;;;;;;10.44;87.95;95754.38;5080875;28;20040;-72
2021/10/06 06:12:00;;;;;;;14.77;8.25;;;;;;;10.44;87.49;95759.56;5083999;28;20093;-71
2021/10/06 06:14:29;;;;;;;14.18;8.13;;;;;;;10.35;87.29;95750.38;5099282;28;20047;-71
2021/10/06 06:16:56;;;;;;;14.95;7.70;;;;;;;10.45;87.21;95766.38;5090331;28;20040;-71
2021/10/06 06:19:23;;;;;;;15.57;9.52;;;;;;;10.36;87.13;95754.59;5086884;28;20043;-71
2021/10/06 06:21:49;;;;;;;15.40;9.95;;;;;;;10.51;87.15;95760.34;5104911;28;20120;-71
2021/10/06 06:24:16;;;;;;;17.10;8.90;;;;;;;10.58;86.63;95749.09;5105120;28;20039;-71
2021/10/06 06:26:43;;;;;;;17.85;10.00;;;;;;;10.58;86.15;95743.88;5088235;28;20044;-71
2021/10/06 06:29:10;;;;;;;14.27;9.05;;;;;;;10.64;86.59;95748.25;5074062;28;20094;-71
2021/10/06 06:31:37;;;;;;;15.40;9.02;;;;;;;10.75;86.00;95758.03;5086702;28;20046;-71
2021/10/06 06:34:03;;;;;;;12.82;8.27;;;;;;;10.70;85.74;95758.63;5091455;28;20035;-70
2021/10/06 06:36:30;;;;;;;15.48;8.25;;;;;;;10.73;84.98;95757.41;5095486;28;20105;-71
2021/10/06 06:38:57;;;;;;;13.07;8.65;;;;;;;10.86;85.28;95762.56;5085259;28;20625;-71
2021/10/06 06:41:23;;;;;;;13.90;7.90;;;;;;;10.83;84.45;95757.75;5060999;28;20442;-71
2021/10/06 06:43:50;;;;;;;15.50;8.93;;;;;;;10.83;84.67;95752.53;5097826;28;20059;-72
2021/10/06 06:46:17;;;;;;;15.45;8.30;;;;;;;10.92;84.50;95760.13;5087240;28;20467;-71
2021/10/06 06:48:44;;;;;;;17.60;8.43;;;;;;;10.90;84.26;95758.53;5102031;28;20039;-70
2021/10/06 06:51:11;;;;;;;13.85;8.80;;;;;;;10.99;83.43;95755.69;5085979;28;20060;-71
2021/10/06 06:53:38;;;;;;;14.73;8.95;;;;;;;11.13;84.09;95767.63;5094317;28;20059;-71
2021/10/06 06:56:04;;;;;;;13.85;8.57;;;;;;;11.18;83.40;95754.75;5100881;28;20040;-71
2021/10/06 06:58:31;;;;;;;13.15;8.15;;;;;;;11.11;83.85;95759.22;5105006;28;20055;-71
2021/10/06 07:00:58;;;;;;;17.42;9.25;;;;;;;11.17;83.56;95753.13;5104888;28;20039;-71
2021/10/06 07:03:25;;;;;;;14.10;8.68;;;;;;;11.14;83.32;95742.34;5083997;28;20127;-71
2021/10/06 07:05:52;;;;;;;13.05;7.75;;;;;;;11.19;83.48;95764.16;5083818;28;20069;-71
2021/10/06 07:08:18;;;;;;;13.13;8.27;;;;;;;11.24;82.56;95753.88;5084602;28;20101;-71
2021/10/06 07:10:45;;;;;;;18.13;9.05;;;;;;;11.11;82.81;95743.56;5094233;28;20039;-71
2021/10/06 07:13:28;;;;;;;16.70;9.00;;;;;;;11.38;82.82;95759.00;5097906;28;20490;-71
2021/10/06 07:15:55;;;;;;;14.52;8.40;;;;;;;11.52;82.32;95757.09;5084758;28;20055;-71
2021/10/06 07:18:22;;;;;;;17.67;8.02;;;;;;;11.50;81.18;95753.91;5084978;28;20040;-71
2021/10/06 07:20:49;;;;;;;15.20;7.97;;;;;;;11.63;81.57;95759.81;5091733;28;20043;-71
2021/10/06 07:23:16;;;;;;;32.60;11.32;;;;;;;11.69;81.37;95760.75;5102233;28;20136;-71
2021/10/06 07:25:43;;;;;;;18.48;10.82;;;;;;;11.56;80.72;95755.63;5090801;28;20032;-71
2021/10/06 07:28:10;;;;;;;14.77;8.25;;;;;;;11.65;80.63;95776.03;5085407;28;20051;-71
2021/10/06 07:30:36;;;;;;;16.95;8.35;;;;;;;11.74;80.29;95773.16;5083139;28;20054;-71
2021/10/06 07:33:03;;;;;;;16.52;8.48;;;;;;;11.56;80.25;95761.66;5084467;28;20043;-71
2021/10/06 07:35:30;;;;;;;14.77;8.90;;;;;;;11.72;80.59;95775.16;5097271;28;20056;-70
2021/10/06 07:37:57;;;;;;;13.77;8.18;;;;;;;11.74;80.68;95773.97;5089797;28;20060;-70
2021/10/06 07:40:25;;;;;;;12.13;7.70;;;;;;;11.84;80.39;95768.25;5087890;28;20159;-70
2021/10/06 07:42:52;;;;;;;15.55;8.98;;;;;;;11.92;80.36;95781.06;5086531;28;20048;-71
2021/10/06 07:45:19;;;;;;;15.90;9.50;;;;;;;11.80;80.33;95767.09;5087568;28;20058;-71
2021/10/06 07:47:46;;;;;;;15.27;8.35;;;;;;;11.92;80.12;95786.28;5085897;28;20113;-71
2021/10/06 07:50:12;;;;;;;21.15;10.55;;;;;;;11.81;80.80;95774.69;5100080;28;20042;-71
2021/10/06 07:52:40;;;;;;;24.60;13.40;;;;;;;11.89;81.14;95791.88;5084584;28;20051;-71
2021/10/06 07:55:08;;;;;;;16.58;9.88;;;;;;;11.93;80.64;95793.06;5089188;28;20081;-71
2021/10/06 07:57:35;;;;;;;16.92;9.63;;;;;;;12.07;80.13;95795.56;5077957;28;20040;-71
2021/10/06 08:00:40;;;;;;;15.52;9.43;;;;;;;12.19;81.25;95797.25;5103180;28;20040;-71
2021/10/06 08:03:07;;;;;;;18.23;10.07;;;;;;;12.00;79.97;95778.16;5098229;28;20060;-70
2021/10/06 08:05:34;;;;;;;14.65;8.43;;;;;;;11.94;80.59;95783.44;5093487;28;20473;-71
2021/10/06 08:08:01;;;;;;;15.70;9.63;;;;;;;11.85;79.93;95777.69;5089303;28;20480;-70
2021/10/06 08:10:27;;;;;;;13.32;8.30;;;;;;;12.03;80.19;95796.00;5090339;28;20508;-70
2021/10/06 08:12:55;;;;;;;16.17;9.13;;;;;;;11.94;80.27;95788.66;5087184;28;20500;-70
2021/10/06 08:15:22;;;;;;;16.02;10.25;;;;;;;11.95;80.07;95796.28;5092239;28;20423;-70
2021/10/06 08:17:49;;;;;;;21.38;10.85;;;;;;;11.88;80.47;95792.09;5091407;28;20036;-70
2021/10/06 08:20:16;;;;;;;15.55;8.38;;;;;;;12.12;79.94;95801.75;5069303;28;20139;-70
2021/10/06 08:22:43;;;;;;;19.92;10.68;;;;;;;12.16;79.67;95802.13;5105264;28;20547;-71
2021/10/06 08:25:10;;;;;;;17.05;9.65;;;;;;;12.22;79.28;95811.69;5104047;28;20059;-71
2021/10/06 08:27:37;;;;;;;14.13;8.57;;;;;;;11.97;79.06;95793.44;5101866;28;20059;-71
2021/10/06 08:30:08;;;;;;;22.13;11.68;;;;;;;12.16;79.51;95812.56;5091015;28;20417;-70
2021/10/06 08:32:35;;;;;;;25.95;10.77;;;;;;;12.08;79.93;95805.00;5088394;28;20044;-70
2021/10/06 08:35:03;;;;;;;16.13;9.40;;;;;;;11.99;79.54;95797.44;5073744;28;20048;-71
2021/10/06 08:37:29;;;;;;;14.80;9.05;;;;;;;12.02;79.87;95812.66;5071241;28;20056;-71
2021/10/06 08:39:57;;;;;;;17.05;9.85;;;;;;;12.00;80.68;95819.13;5065877;28;20135;-71
2021/10/06 08:42:24;;;;;;;18.08;8.90;;;;;;;11.91;81.06;95799.53;5085935;28;20047;-71
2021/10/06 08:44:51;;;;;;;15.85;8.88;;;;;;;12.09;80.38;95811.81;5089711;28;20044;-71
2021/10/06 08:47:20;;;;;;;15.05;8.95;;;;;;;12.07;79.56;95811.25;5087973;28;20040;-71
2021/10/06 08:49:47;;;;;;;20.45;10.75;;;;;;;11.95;80.72;95795.47;5089126;28;20495;-71
2021/10/06 08:52:15;;;;;;;19.98;11.05;;;;;;;11.99;80.35;95818.34;5087811;28;20048;-71
2021/10/06 08:54:41;;;;;;;19.98;10.82;;;;;;;11.86;81.18;95821.03;5085631;28;20544;-71
2021/10/06 08:57:16;;;;;;;14.75;8.07;;;;;;;11.94;80.51;95818.19;5089672;28;20039;-70
2021/10/06 08:59:43;;;;;;;;;;;;;;;11.82;81.24;95818.03;5085713;28;20060;-71
2021/10/06 09:02:14;;;;;;;17.23;9.38;;;;;;;11.87;81.47;95820.03;5089977;28;19935;-71
2021/10/06 09:04:42;;;;;;;21.17;11.73;;;;;;;11.77;82.10;95804.03;5085357;28;20044;-71
2021/10/06 09:07:09;;;;;;;18.98;10.65;;;;;;;11.81;80.97;95811.25;5086920;28;20044;-71
2021/10/06 09:09:37;;;;;;;24.90;10.75;;;;;;;11.90;80.99;95813.56;5087968;28;20044;-71
2021/10/06 09:12:23;;;;;;;18.00;10.07;;;;;;;11.97;79.82;95801.28;5088472;28;20035;-71
2021/10/06 09:14:50;;;;;;;21.67;10.25;;;;;;;11.99;80.23;95818.34;5087259;28;20169;-71
2021/10/06 09:17:19;;;;;;;21.02;11.57;;;;;;;11.94;80.88;95805.13;5087245;28;20048;-70
2021/10/06 09:19:54;;;;;;;24.50;13.00;;;;;;;12.01;80.75;95789.38;5093923;28;20059;-71
2021/10/06 09:22:27;;;;;;;22.10;11.80;;;;;;;12.13;80.60;95792.09;5091712;28;20501;-71
2021/10/06 09:25:03;;;;;;;20.92;11.13;;;;;;;12.37;79.35;95809.53;5101226;28;20048;-72
2021/10/06 09:27:40;;;;;;;17.63;10.35;;;;;;;12.38;78.59;95805.09;5102083;28;20037;-71
2021/10/06 09:30:12;;;;;;;20.20;10.02;;;;;;;12.53;79.22;95813.38;5086994;28;20066;-72
2021/10/06 09:32:42;;;;;;;17.67;9.52;;;;;;;12.36;78.39;95807.91;5095409;28;20051;-71
2021/10/06 09:35:18;;;;;;;14.68;8.88;;;;;;;12.32;79.33;95817.22;5088871;28;20091;-70
2021/10/06 09:37:51;;;;;;;20.23;9.45;;;;;;;12.48;79.06;95820.25;5092196;28;20068;-71
2021/10/06 09:40:23;;;;;;;15.75;9.52;;;;;;;12.56;78.38;95822.56;5104984;28;20055;-71
2021/10/06 09:42:53;;;;;;;17.48;9.68;;;;;;;12.44;78.30;95825.09;5091028;28;20461;-71
2021/10/06 09:45:30;;;;;;;19.27;10.07;;;;;;;12.49;78.88;95819.25;5092743;28;20060;-71
2021/10/06 09:48:11;;;;;;;16.20;9.52;;;;;;;12.62;78.07;95826.91;5099158;28;20523;-71
2021/10/06 09:50:47;;;;;;;20.55;9.50;;;;;;;12.69;78.07;95813.78;5098430;28;20070;-71
2021/10/06 09:53:23;;;;;;;15.90;8.20;;;;;;;12.77;76.99;95803.81;5085545;28;20048;-71
2021/10/06 09:55:52;;;;;;;17.20;9.63;;;;;;;12.99;76.08;95811.19;5090877;28;20470;-72
2021/10/06 09:58:20;;;;;;;22.25;10.32;;;;;;;13.02;76.46;95810.75;5100207;28;20041;-70
2021/10/06 10:00:49;;;;;;;19.75;10.60;;;;;;;13.10;76.67;95799.97;5100450;28;20073;-71
2021/10/06 10:03:16;;;;;;;15.95;8.27;;;;;;;13.34;75.23;95807.91;5104881;28;20097;-72
2021/10/06 10:05:43;;;;;;;16.48;9.55;;;;;;;13.19;74.72;95796.00;5094035;28;20062;-72
2021/10/06 10:08:10;;;;;;;21.15;11.82;;;;;;;13.12;74.55;95784.84;5103860;28;20491;-72
2021/10/06 10:10:38;;;;;;;21.33;10.23;;;;;;;13.24;74.84;95791.94;5087753;28;20052;-72
2021/10/06 10:13:06;;;;;;;18.98;10.65;;;;;;;13.11;75.26;95788.50;5097523;28;20575;-71
2021/10/06 10:15:33;;;;;;;22.42;9.90;;;;;;;12.80;74.50;95774.63;5065579;28;20044;-71
2021/10/06 10:18:03;;;;;;;22.17;11.32;;;;;;;12.91;75.57;95777.50;5096948;28;20519;-71
2021/10/06 10:20:50;;;;;;;18.63;10.25;;;;;;;13.34;74.93;95768.66;5095750;28;20044;-71
2021/10/06 10:23:19;;;;;;;19.58;9.82;;;;;;;13.53;74.71;95775.41;5091739;28;20467;-71
2021/10/06 10:25:47;;;;;;;17.65;10.07;;;;;;;13.65;73.36;95751.06;5096635;28;20058;-72
2021/10/06 10:28:20;;;;;;;18.00;10.48;;;;;;;13.81;73.41;95750.41;5100859;28;20501;-71
2021/10/06 10:30:53;;;;;;;15.90;8.50;;;;;;;13.89;71.67;95760.50;5095206;28;20055;-72
2021/10/06 10:33:47;;;;;;;15.95;8.98;;;;;;;13.76;71.92;95758.13;5091191;28;20044;-72
2021/10/06 10:36:35;;;;;;;15.50;10.13;;;;;;;14.26;72.03;95757.63;5101124;28;20168;-73
2021/10/06 10:39:04;;;;;;;17.67;9.40;;;;;;;15.17;65.92;95762.22;5065898;28;20048;-72
2021/10/06 10:41:53;;;;;;;15.57;9.70;;;;;;;15.06;67.28;95766.50;5101305;28;20055;-72
2021/10/06 10:44:47;;;;;;;15.60;8.95;;;;;;;14.87;65.88;95763.28;5083408;28;20497;-71
2021/10/06 10:47:14;;;;;;;18.75;10.52;;;;;;;14.49;67.66;95754.13;5086522;28;20055;-71
2021/10/06 10:49:52;;;;;;;16.88;10.07;;;;;;;14.71;68.25;95762.19;5095874;28;20481;-71
2021/10/06 10:52:39;;;;;;;18.70;10.93;;;;;;;14.94;66.26;95750.00;5066055;28;20105;-70
2021/10/06 10:55:07;;;;;;;23.67;11.27;;;;;;;15.21;65.58;95752.03;5070553;28;20135;-71
2021/10/06 10:57:41;;;;;;;16.83;10.48;;;;;;;15.42;64.61;95751.34;5090365;28;20512;-70
2021/10/06 11:00:29;;;;;;;19.13;10.70;;;;;;;15.52;63.49;95760.41;5096916;28;20133;-70
2021/10/06 11:03:00;;;;;;;16.00;9.48;;;;;;;16.05;63.52;95752.00;5085759;28;20073;-71
2021/10/06 11:05:45;;;;;;;14.68;9.57;;;;;;;15.65;61.56;95762.72;5089959;28;20505;-70
2021/10/06 11:08:27;;;;;;;;;;;;;;;15.38;62.73;95752.84;5090423;28;20036;-72
2021/10/06 11:11:11;;;;;;;16.63;9.25;;;;;;;15.49;64.07;95748.56;5087625;28;20048;-69
2021/10/06 11:13:46;;;;;;;16.65;10.15;;;;;;;16.04;61.51;95736.50;5086941;28;20491;-70
2021/10/06 11:16:13;;;;;;;14.05;9.63;;;;;;;15.94;60.08;95737.16;5086556;28;20105;-70
2021/10/06 11:18:58;;;;;;;14.55;9.02;;;;;;;15.94;60.86;95733.75;5089296;28;20046;-70
2021/10/06 11:21:37;;;;;;;13.15;7.93;;;;;;;16.30;60.05;95721.84;5094711;28;20067;-70
2021/10/06 11:24:37;;;;;;;12.07;8.18;;;;;;;16.83;58.52;95730.06;5097362;28;20048;-70
2021/10/06 11:27:04;;;;;;;12.88;8.38;;;;;;;16.94;57.89;95716.00;5038867;28;20035;-71
2021/10/06 11:29:52;;;;;;;18.15;8.02;;;;;;;17.19;57.61;95725.91;5095549;28;20032;-71
2021/10/06 11:32:19;;;;;;;12.98;9.27;;;;;;;16.58;60.17;95707.72;5091171;28;20424;-71
2021/10/06 11:34:49;;;;;;;10.88;7.85;;;;;;;16.63;57.55;95714.84;5091110;28;20059;-72
2021/10/06 11:37:17;;;;;;;14.20;7.60;;;;;;;16.84;57.47;95709.84;5078953;28;20417;-71